Time;durP1;ratioP1;P1;durP2;ratioP2;P2;SDS_P1;SDS_P2;PMS_P1;PMS_P2;Temp;Humidity;BMP_temperature;BMP_pressure;BME280_temperature;BME280_humidity;BME280_pressure;Samples;Min_cycle;Max_cycle;Signal;HPM_P1;HPM_P2
2021/11/06 00:01:35;;;;;;;6.83;2.87;;;;;;;;;;5053345;28;20215;-76
2021/11/06 00:04:01;;;;;;;6.07;3.03;;;;;;;;;;5053007;28;20294;-77
2021/11/06 00:06:28;;;;;;;7.77;3.03;;;;;;;;;;5054317;28;20985;-76
2021/11/06 00:08:54;;;;;;;8.73;2.83;;;;;;;;;;5052055;28;20227;-77
2021/11/06 00:11:21;;;;;;;5.33;3.33;;;;;;;;;;5054399;28;20211;-76
2021/11/06 00:13:47;;;;;;;6.60;3.10;;;;;;;;;;5053975;28;20257;-76
2021/11/06 00:16:13;;;;;;;7.93;3.33;;;;;;;;;;5053479;28;20220;-76
2021/11/06 00:18:42;;;;;;;5.23;2.60;;;;;;;;;;5054090;28;20223;-76
2021/11/06 00:21:08;;;;;;;5.80;2.60;;;;;;;;;;5053189;28;20222;-76
2021/11/06 00:23:34;;;;;;;5.57;2.93;;;;;;;;;;5053218;28;20624;-76
2021/11/06 00:26:01;;;;;;;5.53;3.17;;;;;;;;;;5052925;28;20646;-76
2021/11/06 00:28:27;;;;;;;5.67;3.07;;;;;;;;;;5053701;28;20206;-77
2021/11/06 00:30:54;;;;;;;6.83;3.10;;;;;;;;;;5051370;28;20659;-76
2021/11/06 00:33:20;;;;;;;7.57;3.27;;;;;;;;;;5052013;28;20215;-76
2021/11/06 00:35:48;;;;;;;6.33;3.10;;;;;;;;;;5054262;28;20215;-77
2021/11/06 00:38:14;;;;;;;6.17;3.10;;;;;;;;;;5049928;28;20242;-76
2021/11/06 00:41:08;;;;;;;5.97;3.23;;;;;;;;;;5053428;28;20635;-76
2021/11/06 00:43:35;;;;;;;5.67;2.90;;;;;;;;;;5052975;28;20350;-76
2021/11/06 00:46:01;;;;;;;7.37;2.93;;;;;;;;;;5053023;28;20215;-76
2021/11/06 00:48:28;;;;;;;9.33;3.20;;;;;;;;;;5052724;28;20208;-76
2021/11/06 00:50:56;;;;;;;7.13;3.30;;;;;;;;;;5052475;28;20273;-76
2021/11/06 00:53:22;;;;;;;7.20;3.70;;;;;;;;;;5053164;28;20231;-76
2021/11/06 00:55:48;;;;;;;6.10;3.50;;;;;;;;;;5052268;28;20215;-77
2021/11/06 00:58:15;;;;;;;5.30;3.10;;;;;;;;;;5051737;28;20670;-76
2021/11/06 01:00:41;;;;;;;5.77;3.37;;;;;;;;;;5053756;28;20285;-77
2021/11/06 01:03:08;;;;;;;4.63;3.20;;;;;;;;;;5051112;28;20646;-76
2021/11/06 01:05:34;;;;;;;7.60;3.60;;;;;;;;;;5052251;28;20325;-76
2021/11/06 01:08:03;;;;;;;9.07;3.47;;;;;;;;;;5051210;28;20248;-77
2021/11/06 01:10:29;;;;;;;6.70;3.60;;;;;;;;;;5053026;28;20208;-77
2021/11/06 01:12:56;;;;;;;6.80;3.73;;;;;;;;;;5051165;28;20217;-77
2021/11/06 01:15:23;;;;;;;7.83;3.47;;;;;;;;;;5054155;28;20228;-76
2021/11/06 01:17:49;;;;;;;7.30;3.63;;;;;;;;;;5052716;28;20210;-77
2021/11/06 01:20:16;;;;;;;5.93;3.30;;;;;;;;;;5051796;28;20220;-77
2021/11/06 01:22:43;;;;;;;8.87;4.77;;;;;;;;;;5052776;28;20318;-77
2021/11/06 01:25:12;;;;;;;6.40;3.87;;;;;;;;;;5054021;28;20240;-77
2021/11/06 01:27:39;;;;;;;6.07;4.03;;;;;;;;;;5054147;28;20701;-76
2021/11/06 01:30:07;;;;;;;8.17;3.93;;;;;;;;;;5049863;28;20277;-77
2021/11/06 01:32:34;;;;;;;7.20;4.10;;;;;;;;;;5053820;28;20268;-77
2021/11/06 01:35:01;;;;;;;6.67;3.83;;;;;;;;;;5055992;28;20209;-77
2021/11/06 01:37:28;;;;;;;6.37;4.00;;;;;;;;;;5054476;28;20302;-77
2021/11/06 01:39:55;;;;;;;9.23;4.97;;;;;;;;;;5056410;28;20239;-77
2021/11/06 01:42:23;;;;;;;7.17;4.70;;;;;;;;;;5056982;28;20211;-77
2021/11/06 01:44:50;;;;;;;8.73;4.30;;;;;;;;;;5056368;28;20254;-77
2021/11/06 01:47:16;;;;;;;10.63;5.37;;;;;;;;;;5056977;28;20646;-77
2021/11/06 01:49:43;;;;;;;9.13;5.00;;;;;;;;;;5057143;28;20266;-76
2021/11/06 01:52:09;;;;;;;12.30;5.60;;;;;;;;;;5056906;28;20204;-76
2021/11/06 01:54:36;;;;;;;8.03;4.67;;;;;;;;;;5056128;28;20726;-77
2021/11/06 01:57:03;;;;;;;8.17;5.70;;;;;;;;;;5055890;28;20218;-77
2021/11/06 01:59:31;;;;;;;12.63;6.20;;;;;;;;;;5057482;28;20230;-77
2021/11/06 02:01:59;;;;;;;8.93;5.80;;;;;;;;;;5055611;28;20245;-77
2021/11/06 02:04:26;;;;;;;13.03;6.77;;;;;;;;;;5056738;28;20214;-77
2021/11/06 02:06:53;;;;;;;12.17;6.60;;;;;;;;;;5056596;28;20646;-77
2021/11/06 02:09:19;;;;;;;10.87;6.83;;;;;;;;;;5052175;28;20242;-77
2021/11/06 02:11:46;;;;;;;9.83;6.30;;;;;;;;;;5055000;28;20564;-77
2021/11/06 02:14:12;;;;;;;10.07;7.10;;;;;;;;;;5055780;28;20295;-77
2021/11/06 02:16:40;;;;;;;8.63;7.20;;;;;;;;;;5055826;28;20568;-77
2021/11/06 02:19:07;;;;;;;10.13;7.43;;;;;;;;;;5055212;28;20224;-77
2021/11/06 02:21:36;;;;;;;12.90;7.93;;;;;;;;;;5055732;28;20208;-77
2021/11/06 02:24:03;;;;;;;10.33;7.13;;;;;;;;;;5055047;28;20235;-77
2021/11/06 02:26:31;;;;;;;11.53;7.37;;;;;;;;;;5054553;28;20638;-76
2021/11/06 02:29:00;;;;;;;11.90;7.40;;;;;;;;;;5054683;28;20297;-76
2021/11/06 02:31:26;;;;;;;12.53;8.93;;;;;;;;;;5055267;28;20759;-76
2021/11/06 02:33:53;;;;;;;10.10;8.47;;;;;;;;;;5055472;28;20214;-76
2021/11/06 02:36:21;;;;;;;15.23;9.20;;;;;;;;;;5055325;28;20264;-76
2021/11/06 02:38:50;;;;;;;14.07;9.97;;;;;;;;;;5055725;28;20239;-76
2021/11/06 02:41:16;;;;;;;13.60;9.87;;;;;;;;;;5054694;28;20268;-77
2021/11/06 02:43:43;;;;;;;14.30;11.50;;;;;;;;;;5054386;28;20301;-76
2021/11/06 02:46:09;;;;;;;16.33;11.33;;;;;;;;;;5053963;28;20216;-76
2021/11/06 02:48:35;;;;;;;14.20;12.27;;;;;;;;;;5055750;28;20638;-76
2021/11/06 02:51:02;;;;;;;15.70;12.07;;;;;;;;;;5053792;28;20389;-76
2021/11/06 02:53:28;;;;;;;19.03;13.43;;;;;;;;;;5054847;28;20277;-76
2021/11/06 02:55:56;;;;;;;14.37;12.87;;;;;;;;;;5055477;28;20277;-76
2021/11/06 02:58:22;;;;;;;16.23;13.00;;;;;;;;;;5053544;28;20713;-75
2021/11/06 03:00:49;;;;;;;15.93;13.23;;;;;;;;;;5056066;28;20220;-75
2021/11/06 03:03:15;;;;;;;18.73;15.23;;;;;;;;;;5055818;28;20210;-75
2021/11/06 03:05:42;;;;;;;16.47;13.90;;;;;;;;;;5055441;28;20768;-75
2021/11/06 03:08:08;;;;;;;16.77;15.07;;;;;;;;;;5050681;28;20242;-75
2021/11/06 03:10:35;;;;;;;16.77;13.97;;;;;;;;;;5056958;28;20207;-75
2021/11/06 03:13:03;;;;;;;17.40;13.03;;;;;;;;;;5056229;28;20214;-75
2021/11/06 03:15:30;;;;;;;16.83;14.40;;;;;;;;;;5052731;28;20280;-75
2021/11/06 03:17:56;;;;;;;17.67;14.93;;;;;;;;;;5053619;28;20301;-75
2021/11/06 03:20:23;;;;;;;19.63;14.30;;;;;;;;;;5054709;28;20330;-75
2021/11/06 03:22:51;;;;;;;17.90;15.13;;;;;;;;;;5054085;28;20216;-76
2021/11/06 03:25:18;;;;;;;16.17;14.40;;;;;;;;;;5053457;28;20723;-76
2021/11/06 03:27:45;;;;;;;16.00;13.40;;;;;;;;;;5056616;28;20263;-75
2021/11/06 03:30:13;;;;;;;18.83;14.57;;;;;;;;;;5053610;28;20220;-75
2021/11/06 03:32:40;;;;;;;16.07;14.57;;;;;;;;;;5052544;28;20278;-76
2021/11/06 03:35:07;;;;;;;16.53;14.73;;;;;;;;;;5056025;28;20218;-75
2021/11/06 03:37:34;;;;;;;18.03;14.23;;;;;;;;;;5054014;28;20218;-75
2021/11/06 03:40:01;;;;;;;16.47;14.57;;;;;;;;;;5052004;28;21119;-75
2021/11/06 03:42:27;;;;;;;16.70;15.00;;;;;;;;;;5054365;28;20207;-75
2021/11/06 03:44:54;;;;;;;16.27;13.63;;;;;;;;;;5053877;28;20243;-75
2021/11/06 03:47:22;;;;;;;16.60;14.47;;;;;;;;;;5052950;28;20219;-75
2021/11/06 03:49:49;;;;;;;17.80;13.87;;;;;;;;;;5052981;28;20295;-75
2021/11/06 03:52:16;;;;;;;23.17;14.20;;;;;;;;;;5054245;28;20650;-75
2021/11/06 03:54:42;;;;;;;15.23;13.63;;;;;;;;;;5053749;28;20692;-75
2021/11/06 03:57:09;;;;;;;15.50;12.90;;;;;;;;;;5052730;28;20207;-75
2021/11/06 03:59:36;;;;;;;16.00;13.03;;;;;;;;;;5053404;28;20239;-75
2021/11/06 04:02:03;;;;;;;16.40;14.47;;;;;;;;;;5052974;28;20529;-75
2021/11/06 04:04:31;;;;;;;17.33;14.33;;;;;;;;;;5051764;28;20297;-75
2021/11/06 04:06:57;;;;;;;18.53;13.67;;;;;;;;;;5053671;28;20235;-75
2021/11/06 04:09:23;;;;;;;17.87;14.97;;;;;;;;;;5053902;28;20663;-75
2021/11/06 04:11:51;;;;;;;19.77;15.00;;;;;;;;;;5053386;28;20214;-75
2021/11/06 04:14:17;;;;;;;18.53;15.30;;;;;;;;;;5051516;28;20319;-75
2021/11/06 04:16:44;;;;;;;17.53;15.60;;;;;;;;;;5054563;28;20218;-74
2021/11/06 04:19:10;;;;;;;18.70;15.20;;;;;;;;;;5051187;28;20233;-75
2021/11/06 04:21:38;;;;;;;21.97;16.50;;;;;;;;;;5053941;28;20263;-74
2021/11/06 04:24:05;;;;;;;22.20;18.30;;;;;;;;;;5054045;28;20241;-75
2021/11/06 04:26:31;;;;;;;22.67;17.27;;;;;;;;;;5053807;28;20214;-74
2021/11/06 04:28:58;;;;;;;21.30;17.90;;;;;;;;;;5053587;28;20231;-74
2021/11/06 04:31:24;;;;;;;20.53;17.90;;;;;;;;;;5052669;28;20214;-74
2021/11/06 04:33:51;;;;;;;19.13;14.73;;;;;;;;;;5054146;28;20561;-74
2021/11/06 04:36:17;;;;;;;21.37;18.90;;;;;;;;;;5051246;28;20214;-74
2021/11/06 04:38:45;;;;;;;25.80;19.20;;;;;;;;;;5053430;28;20228;-74
2021/11/06 04:41:12;;;;;;;26.17;18.87;;;;;;;;;;5053029;28;20262;-74
2021/11/06 04:43:38;;;;;;;24.27;19.40;;;;;;;;;;5053334;28;20308;-74
2021/11/06 04:46:05;;;;;;;22.80;19.50;;;;;;;;;;5052572;28;20225;-74
2021/11/06 04:48:32;;;;;;;24.93;18.33;;;;;;;;;;5052338;28;20721;-75
2021/11/06 04:50:58;;;;;;;25.70;18.33;;;;;;;;;;5051697;28;20261;-74
2021/11/06 04:53:24;;;;;;;27.03;20.30;;;;;;;;;;5052559;28;20222;-74
2021/11/06 04:55:52;;;;;;;25.90;20.67;;;;;;;;;;5053168;28;20218;-74
2021/11/06 04:58:19;;;;;;;25.33;20.40;;;;;;;;;;5052852;28;20259;-74
2021/11/06 05:00:46;;;;;;;29.70;22.10;;;;;;;;;;5051825;28;20234;-74
2021/11/06 05:03:14;;;;;;;28.20;19.70;;;;;;;;;;5052056;28;20218;-74
2021/11/06 05:05:40;;;;;;;25.23;20.80;;;;;;;;;;5052994;28;20234;-75
2021/11/06 05:08:06;;;;;;;29.27;21.60;;;;;;;;;;5054492;28;20245;-74
2021/11/06 05:10:33;;;;;;;26.13;21.13;;;;;;;;;;5056339;28;20207;-74
2021/11/06 05:13:00;;;;;;;25.97;19.77;;;;;;;;;;5057194;28;20206;-74
2021/11/06 05:15:27;;;;;;;28.67;21.00;;;;;;;;;;5056857;28;20244;-74
2021/11/06 05:17:54;;;;;;;29.10;21.67;;;;;;;;;;5057338;28;20268;-74
2021/11/06 05:20:21;;;;;;;25.70;20.53;;;;;;;;;;5055984;28;20261;-75
2021/11/06 05:22:47;;;;;;;28.40;21.40;;;;;;;;;;5055478;28;20271;-75
2021/11/06 05:25:13;;;;;;;26.17;21.37;;;;;;;;;;5056586;28;21028;-74
2021/11/06 05:27:40;;;;;;;27.53;21.10;;;;;;;;;;5057367;28;20255;-74
2021/11/06 05:30:10;;;;;;;27.57;19.20;;;;;;;;;;5055509;28;20284;-75
2021/11/06 05:32:38;;;;;;;28.77;24.63;;;;;;;;;;5059247;28;20525;-80
2021/11/06 05:35:07;;;;;;;22.37;20.07;;;;;;;;;;5062512;28;20336;-79
2021/11/06 05:37:33;;;;;;;26.80;19.93;;;;;;;;;;5063619;28;20213;-79
2021/11/06 05:40:00;;;;;;;27.07;21.37;;;;;;;;;;5062392;28;20284;-79
2021/11/06 05:42:26;;;;;;;23.97;19.80;;;;;;;;;;5061004;28;20216;-79
2021/11/06 05:44:53;;;;;;;24.60;21.20;;;;;;;;;;5062322;28;20736;-79
2021/11/06 05:47:21;;;;;;;29.13;21.33;;;;;;;;;;5061525;28;20664;-79
2021/11/06 05:49:47;;;;;;;26.80;20.33;;;;;;;;;;5060501;28;20277;-78
2021/11/06 05:52:13;;;;;;;23.63;20.77;;;;;;;;;;5059465;28;20210;-79
2021/11/06 05:54:40;;;;;;;28.63;21.13;;;;;;;;;;5061638;28;20763;-78
2021/11/06 05:57:07;;;;;;;25.77;19.63;;;;;;;;;;5060380;28;20219;-79
2021/11/06 05:59:33;;;;;;;25.03;19.63;;;;;;;;;;5056951;28;20258;-78
2021/11/06 06:01:59;;;;;;;25.80;20.50;;;;;;;;;;5058195;28;20218;-78
2021/11/06 06:04:27;;;;;;;25.40;22.07;;;;;;;;;;5057936;28;20268;-78
2021/11/06 06:06:54;;;;;;;27.87;21.23;;;;;;;;;;5059856;28;20228;-80
2021/11/06 06:09:21;;;;;;;30.57;21.97;;;;;;;;;;5056886;28;20239;-78
2021/11/06 06:11:47;;;;;;;26.30;19.57;;;;;;;;;;5055582;28;20540;-78
2021/11/06 06:14:14;;;;;;;27.70;22.23;;;;;;;;;;5056882;28;20620;-80
2021/11/06 06:16:40;;;;;;;29.23;19.30;;;;;;;;;;5058566;28;20264;-80
2021/11/06 06:19:07;;;;;;;29.07;20.37;;;;;;;;;;5058947;28;20207;-80
2021/11/06 06:21:34;;;;;;;29.33;21.63;;;;;;;;;;5058589;28;20315;-80
2021/11/06 06:24:01;;;;;;;32.80;22.40;;;;;;;;;;5057402;28;20233;-80
2021/11/06 06:26:27;;;;;;;27.13;20.20;;;;;;;;;;5056835;28;20215;-80
2021/11/06 06:28:54;;;;;;;23.97;19.67;;;;;;;;;;5058527;28;20219;-80
2021/11/06 06:31:20;;;;;;;25.57;21.60;;;;;;;;;;5055459;28;20198;-80
2021/11/06 06:33:47;;;;;;;27.60;21.70;;;;;;;;;;5056424;28;20919;-80
2021/11/06 06:36:13;;;;;;;27.17;19.00;;;;;;;;;;5058679;28;20212;-80
2021/11/06 06:38:41;;;;;;;25.03;20.57;;;;;;;;;;5057521;28;20234;-80
2021/11/06 06:41:08;;;;;;;24.57;19.90;;;;;;;;;;5056668;28;20577;-80
2021/11/06 06:43:34;;;;;;;26.00;22.27;;;;;;;;;;5058095;28;20219;-80
2021/11/06 06:46:01;;;;;;;25.50;21.27;;;;;;;;;;5056954;28;20227;-81
2021/11/06 06:48:28;;;;;;;29.00;21.63;;;;;;;;;;5057030;28;20655;-80
2021/11/06 06:50:55;;;;;;;26.77;20.97;;;;;;;;;;5056858;28;20202;-80
2021/11/06 06:53:21;;;;;;;27.13;22.80;;;;;;;;;;5057339;28;20236;-80
2021/11/06 06:55:50;;;;;;;28.30;21.67;;;;;;;;;;5055000;28;20705;-80
2021/11/06 06:58:16;;;;;;;28.97;21.00;;;;;;;;;;5058611;28;20224;-80
2021/11/06 07:00:43;;;;;;;26.03;21.97;;;;;;;;;;5057987;28;20243;-80
2021/11/06 07:03:09;;;;;;;26.63;21.77;;;;;;;;;;5056299;28;20276;-80
2021/11/06 07:05:36;;;;;;;27.83;22.93;;;;;;;;;;5058360;28;20227;-80
2021/11/06 07:08:05;;;;;;;25.63;20.87;;;;;;;;;;5055043;28;20851;-80
2021/11/06 07:10:32;;;;;;;29.97;22.70;;;;;;;;;;5056241;28;20276;-80
2021/11/06 07:13:01;;;;;;;26.90;22.30;;;;;;;;;;5058385;28;20298;-80
2021/11/06 07:15:27;;;;;;;25.63;18.10;;;;;;;;;;5058406;28;20243;-80
2021/11/06 07:17:54;;;;;;;29.73;23.77;;;;;;;;;;5057805;28;20210;-80
2021/11/06 07:20:21;;;;;;;26.17;23.10;;;;;;;;;;5058312;28;20223;-80
2021/11/06 07:22:48;;;;;;;27.70;22.50;;;;;;;;;;5057252;28;20226;-80
2021/11/06 07:25:15;;;;;;;28.00;21.73;;;;;;;;;;5057100;28;20244;-80
2021/11/06 07:27:44;;;;;;;26.27;23.27;;;;;;;;;;5057621;28;20276;-80
2021/11/06 07:30:13;;;;;;;24.90;22.20;;;;;;;;;;5057619;28;20577;-80
2021/11/06 07:32:40;;;;;;;27.47;22.67;;;;;;;;;;5057692;28;20238;-80
2021/11/06 07:35:07;;;;;;;24.57;20.90;;;;;;;;;;5057437;28;20279;-80
2021/11/06 07:37:34;;;;;;;27.30;20.40;;;;;;;;;;5057349;28;20222;-80
2021/11/06 07:40:01;;;;;;;25.13;20.80;;;;;;;;;;5059266;28;20265;-80
2021/11/06 07:42:28;;;;;;;23.70;19.77;;;;;;;;;;5057608;28;20211;-80
2021/11/06 07:44:54;;;;;;;26.40;21.03;;;;;;;;;;5059906;28;20283;-80
2021/11/06 07:47:22;;;;;;;26.50;21.43;;;;;;;;;;5058447;28;20221;-80
2021/11/06 07:49:49;;;;;;;26.13;21.73;;;;;;;;;;5057841;28;20234;-79
2021/11/06 07:52:15;;;;;;;25.90;20.97;;;;;;;;;;5058660;28;20210;-80
2021/11/06 07:54:42;;;;;;;27.83;20.50;;;;;;;;;;5059495;28;20234;-80
2021/11/06 07:57:10;;;;;;;24.50;20.90;;;;;;;;;;5058089;28;20273;-80
2021/11/06 07:59:37;;;;;;;26.23;22.60;;;;;;;;;;5050546;28;20228;-80
2021/11/06 08:02:03;;;;;;;24.97;20.57;;;;;;;;;;5056520;28;20231;-80
2021/11/06 08:04:31;;;;;;;28.90;21.10;;;;;;;;;;5057737;28;21039;-80
2021/11/06 08:06:58;;;;;;;27.73;21.13;;;;;;;;;;5055027;28;20215;-79
2021/11/06 08:09:24;;;;;;;25.60;21.37;;;;;;;;;;5057978;28;20239;-80
2021/11/06 08:11:51;;;;;;;26.17;22.43;;;;;;;;;;5057742;28;20221;-80
2021/11/06 08:14:17;;;;;;;28.37;20.30;;;;;;;;;;5057790;28;20654;-79
2021/11/06 08:16:44;;;;;;;27.77;20.07;;;;;;;;;;5056666;28;20204;-79
2021/11/06 08:19:11;;;;;;;29.83;22.30;;;;;;;;;;5058227;28;20609;-80
2021/11/06 08:21:38;;;;;;;29.63;21.13;;;;;;;;;;5058117;28;20301;-79
2021/11/06 08:24:05;;;;;;;29.47;22.13;;;;;;;;;;5056506;28;20277;-79
2021/11/06 08:26:32;;;;;;;30.17;21.93;;;;;;;;;;5058976;28;20207;-80
2021/11/06 08:28:58;;;;;;;29.23;20.43;;;;;;;;;;5057631;28;20251;-79
2021/11/06 08:31:25;;;;;;;26.80;18.43;;;;;;;;;;5057035;28;20214;-80
2021/11/06 08:33:51;;;;;;;26.70;20.10;;;;;;;;;;5058563;28;20225;-79
2021/11/06 08:36:18;;;;;;;29.47;22.17;;;;;;;;;;5057834;28;20248;-79
2021/11/06 08:38:45;;;;;;;27.10;21.80;;;;;;;;;;5055517;28;20236;-77
2021/11/06 08:41:12;;;;;;;24.17;20.33;;;;;;;;;;5056309;28;20239;-77
2021/11/06 08:43:39;;;;;;;25.77;20.27;;;;;;;;;;5055148;28;20227;-79
2021/11/06 08:46:05;;;;;;;25.73;20.13;;;;;;;;;;5058956;28;20217;-79
2021/11/06 08:48:32;;;;;;;29.87;18.70;;;;;;;;;;5058504;28;20702;-79
2021/11/06 08:50:59;;;;;;;26.37;19.37;;;;;;;;;;5055076;28;20307;-79
2021/11/06 08:53:25;;;;;;;25.13;18.47;;;;;;;;;;5058754;28;20520;-79
2021/11/06 08:55:55;;;;;;;25.73;19.93;;;;;;;;;;5057728;28;20803;-79
2021/11/06 08:58:22;;;;;;;24.60;19.47;;;;;;;;;;5059832;28;20206;-79
2021/11/06 09:00:49;;;;;;;21.27;18.87;;;;;;;;;;5060526;28;20253;-79
2021/11/06 09:03:18;;;;;;;22.80;18.27;;;;;;;;;;5058868;28;20219;-77
2021/11/06 09:05:49;;;;;;;27.20;18.80;;;;;;;;;;5059792;28;20234;-79
2021/11/06 09:08:17;;;;;;;21.20;16.77;;;;;;;;;;5055626;28;20236;-77
2021/11/06 09:10:44;;;;;;;26.87;20.50;;;;;;;;;;5055936;28;20712;-77
2021/11/06 09:13:12;;;;;;;28.60;19.13;;;;;;;;;;5050859;28;20218;-78
2021/11/06 09:15:39;;;;;;;23.30;18.23;;;;;;;;;;5055910;28;20260;-80
2021/11/06 09:18:05;;;;;;;23.13;17.67;;;;;;;;;;5052299;28;20231;-78
2021/11/06 09:20:33;;;;;;;25.07;18.47;;;;;;;;;;5054594;28;20216;-78
2021/11/06 09:23:00;;;;;;;22.53;18.07;;;;;;;;;;5053255;28;20276;-78
2021/11/06 09:25:26;;;;;;;20.93;16.23;;;;;;;;;;5053065;28;20208;-78
2021/11/06 09:27:53;;;;;;;23.70;16.63;;;;;;;;;;5052688;28;20620;-78
2021/11/06 09:30:21;;;;;;;19.43;16.60;;;;;;;;;;5053809;28;20231;-78
2021/11/06 09:32:47;;;;;;;22.13;16.73;;;;;;;;;;5053525;28;20452;-78
2021/11/06 09:35:14;;;;;;;23.30;16.80;;;;;;;;;;5052334;28;20219;-78
2021/11/06 09:37:42;;;;;;;23.77;16.70;;;;;;;;;;5055332;28;20308;-78
2021/11/06 09:40:09;;;;;;;23.40;15.87;;;;;;;;;;5052217;28;20233;-78
2021/11/06 09:42:38;;;;;;;24.73;16.83;;;;;;;;;;5052843;28;20234;-78
2021/11/06 09:45:07;;;;;;;20.17;15.10;;;;;;;;;;5052443;28;20263;-78
2021/11/06 09:47:36;;;;;;;25.80;15.90;;;;;;;;;;5052950;28;20648;-78
2021/11/06 09:50:03;;;;;;;24.73;15.57;;;;;;;;;;5053569;28;20639;-78
2021/11/06 09:52:30;;;;;;;22.07;15.17;;;;;;;;;;5055417;28;20220;-78
2021/11/06 09:54:56;;;;;;;20.07;14.17;;;;;;;;;;5056528;28;21186;-78
2021/11/06 09:57:23;;;;;;;23.70;15.17;;;;;;;;;;5058197;28;20260;-78
2021/11/06 09:59:50;;;;;;;22.87;15.17;;;;;;;;;;5058816;28;20239;-79
2021/11/06 10:02:17;;;;;;;24.63;14.90;;;;;;;;;;5059801;28;20231;-78
2021/11/06 10:04:45;;;;;;;22.90;13.27;;;;;;;;;;5059644;28;20239;-78
2021/11/06 10:07:18;;;;;;;22.23;13.37;;;;;;;;;;5057974;28;20247;-78
2021/11/06 10:09:58;;;;;;;21.63;13.57;;;;;;;;;;5057106;28;20293;-78
2021/11/06 10:12:25;;;;;;;21.83;14.00;;;;;;;;;;5059515;28;20237;-78
2021/11/06 10:15:08;;;;;;;21.33;14.27;;;;;;;;;;5059094;28;20229;-78
2021/11/06 10:17:35;;;;;;;20.57;13.27;;;;;;;;;;5056210;28;20239;-78
2021/11/06 10:20:25;;;;;;;20.33;13.50;;;;;;;;;;5058166;28;21016;-78
2021/11/06 10:22:52;;;;;;;17.67;11.73;;;;;;;;;;5056572;28;20328;-78
2021/11/06 10:25:21;;;;;;;20.87;14.33;;;;;;;;;;5058986;28;20232;-79
2021/11/06 10:27:53;;;;;;;24.73;13.30;;;;;;;;;;5058300;28;20271;-78
2021/11/06 10:30:24;;;;;;;19.87;12.70;;;;;;;;;;5057131;28;20645;-78
2021/11/06 10:33:01;;;;;;;20.07;13.20;;;;;;;;;;5057320;28;20220;-78
2021/11/06 10:35:31;;;;;;;19.93;11.77;;;;;;;;;;5056902;28;20250;-78
2021/11/06 10:38:00;;;;;;;20.97;12.70;;;;;;;;;;5057947;28;20212;-78
2021/11/06 10:40:30;;;;;;;16.93;10.73;;;;;;;;;;5054853;28;20590;-78
2021/11/06 10:42:59;;;;;;;15.83;10.90;;;;;;;;;;5056758;28;20898;-78
2021/11/06 10:45:29;;;;;;;17.70;11.33;;;;;;;;;;5058581;28;20251;-78
2021/11/06 10:48:00;;;;;;;18.30;11.27;;;;;;;;;;5059563;28;20205;-78
2021/11/06 10:50:47;;;;;;;17.57;11.63;;;;;;;;;;5057607;28;20220;-78
2021/11/06 10:53:15;;;;;;;20.70;11.30;;;;;;;;;;5056782;28;20213;-78
2021/11/06 10:55:45;;;;;;;14.83;10.00;;;;;;;;;;5058505;28;20216;-78
2021/11/06 10:58:23;;;;;;;14.23;9.83;;;;;;;;;;5056124;28;20208;-78
2021/11/06 11:00:53;;;;;;;18.43;10.73;;;;;;;;;;5057540;28;20213;-78
2021/11/06 11:03:28;;;;;;;15.57;9.43;;;;;;;;;;5056181;28;20304;-78
2021/11/06 11:05:57;;;;;;;13.37;9.13;;;;;;;;;;5054014;28;20255;-78
2021/11/06 11:08:25;;;;;;;13.60;8.50;;;;;;;;;;5054937;28;20242;-77
2021/11/06 11:10:52;;;;;;;17.77;10.03;;;;;;;;;;5056780;28;20238;-77
2021/11/06 11:13:21;;;;;;;13.33;8.43;;;;;;;;;;5053662;28;20718;-78
2021/11/06 11:15:49;;;;;;;17.70;8.07;;;;;;;;;;5057824;28;20836;-78
2021/11/06 11:18:33;;;;;;;17.17;9.53;;;;;;;;;;5052099;28;20214;-77
2021/11/06 11:21:14;;;;;;;11.83;8.27;;;;;;;;;;5053717;28;20212;-77
2021/11/06 11:23:42;;;;;;;13.97;8.90;;;;;;;;;;5053712;28;20568;-78
2021/11/06 11:26:10;;;;;;;14.80;8.57;;;;;;;;;;5052427;28;20350;-77
2021/11/06 11:28:36;;;;;;;11.50;7.67;;;;;;;;;;5055514;28;20621;-77
2021/11/06 11:31:03;;;;;;;14.30;7.70;;;;;;;;;;5049536;28;20210;-77
2021/11/06 11:33:29;;;;;;;13.23;7.77;;;;;;;;;;5053781;28;20219;-78
2021/11/06 11:35:56;;;;;;;13.53;7.87;;;;;;;;;;5052930;28;20534;-77
2021/11/06 11:38:24;;;;;;;12.23;8.07;;;;;;;;;;5054149;28;20229;-77
2021/11/06 11:41:12;;;;;;;11.60;6.93;;;;;;;;;;5053972;28;20217;-78
2021/11/06 11:43:48;;;;;;;11.40;7.60;;;;;;;;;;5051783;28;20240;-77
2021/11/06 11:46:22;;;;;;;12.67;7.27;;;;;;;;;;5053526;28;20219;-78
2021/11/06 11:48:52;;;;;;;12.17;8.00;;;;;;;;;;5054798;28;20763;-78
2021/11/06 11:51:28;;;;;;;14.73;7.63;;;;;;;;;;5053449;28;20297;-78
2021/11/06 11:54:02;;;;;;;15.90;7.70;;;;;;;;;;5055288;28;20252;-78
2021/11/06 11:56:29;;;;;;;11.00;8.10;;;;;;;;;;5053699;28;20216;-77
2021/11/06 11:58:57;;;;;;;12.60;7.63;;;;;;;;;;5052130;28;20243;-77
2021/11/06 12:01:24;;;;;;;11.67;7.40;;;;;;;;;;5052647;28;20209;-78
2021/11/06 12:03:51;;;;;;;14.30;8.13;;;;;;;;;;5053089;28;20908;-77
2021/11/06 12:06:23;;;;;;;10.80;7.57;;;;;;;;;;5052871;28;20237;-78
2021/11/06 12:08:51;;;;;;;10.73;7.17;;;;;;;;;;5051034;28;20247;-77
2021/11/06 12:11:28;;;;;;;9.63;7.20;;;;;;;;;;5052877;28;20218;-77
2021/11/06 12:13:56;;;;;;;10.67;7.60;;;;;;;;;;5054891;28;20235;-78
2021/11/06 12:16:27;;;;;;;12.73;8.57;;;;;;;;;;5052306;28;20240;-77
2021/11/06 12:18:59;;;;;;;10.23;7.60;;;;;;;;;;5052939;28;20623;-77
2021/11/06 12:21:40;;;;;;;14.00;8.17;;;;;;;;;;5050842;28;20293;-78
2021/11/06 12:24:28;;;;;;;11.23;7.80;;;;;;;;;;5052310;28;21062;-78
2021/11/06 12:27:01;;;;;;;14.23;8.50;;;;;;;;;;5051795;28;20224;-77
2021/11/06 12:29:34;;;;;;;12.03;8.40;;;;;;;;;;5036830;28;20318;-78
2021/11/06 12:32:13;;;;;;;12.90;8.50;;;;;;;;;;5041675;28;20549;-78
2021/11/06 12:34:46;;;;;;;12.83;7.67;;;;;;;;;;5049984;28;20454;-77
2021/11/06 12:37:34;;;;;;;19.27;7.93;;;;;;;;;;5048621;28;21159;-78
2021/11/06 12:40:01;;;;;;;13.83;8.63;;;;;;;;;;5050890;28;20708;-78
2021/11/06 12:42:30;;;;;;;10.10;7.50;;;;;;;;;;5050097;28;20710;-77
2021/11/06 12:45:00;;;;;;;11.83;7.70;;;;;;;;;;5049047;28;20671;-77
2021/11/06 12:47:28;;;;;;;14.77;8.33;;;;;;;;;;5049649;28;20213;-77
2021/11/06 12:49:56;;;;;;;14.53;8.83;;;;;;;;;;5051227;28;20201;-77
2021/11/06 12:52:24;;;;;;;12.50;8.17;;;;;;;;;;5049823;28;20693;-77
2021/11/06 12:54:57;;;;;;;14.13;8.40;;;;;;;;;;5050085;28;20217;-77
2021/11/06 12:57:32;;;;;;;16.50;8.67;;;;;;;;;;5053726;28;20702;-77
2021/11/06 12:59:58;;;;;;;12.27;8.00;;;;;;;;;;5047544;28;20587;-77
2021/11/06 13:02:25;;;;;;;10.23;7.27;;;;;;;;;;5051333;28;20241;-77
2021/11/06 13:04:57;;;;;;;14.93;7.70;;;;;;;;;;5052907;28;20584;-80
2021/11/06 13:07:25;;;;;;;16.17;8.67;;;;;;;;;;5051295;28;20213;-77
2021/11/06 13:09:52;;;;;;;16.67;7.90;;;;;;;;;;5047854;28;20371;-78
2021/11/06 13:12:19;;;;;;;13.47;7.80;;;;;;;;;;5048546;28;20209;-77
2021/11/06 13:14:49;;;;;;;13.87;7.77;;;;;;;;;;5052857;28;20291;-77
2021/11/06 13:17:20;;;;;;;13.87;8.53;;;;;;;;;;5051135;28;20209;-77
2021/11/06 13:20:00;;;;;;;13.27;7.37;;;;;;;;;;5052134;28;20282;-79
2021/11/06 13:22:48;;;;;;;12.87;7.83;;;;;;;;;;5056009;28;20236;-79
2021/11/06 13:25:17;;;;;;;13.17;7.97;;;;;;;;;;5046735;28;20228;-77
2021/11/06 13:27:53;;;;;;;13.83;8.07;;;;;;;;;;5051854;28;20239;-77
2021/11/06 13:30:38;;;;;;;14.87;7.27;;;;;;;;;;5053068;28;20235;-77
2021/11/06 13:33:08;;;;;;;12.83;8.10;;;;;;;;;;5054036;28;20565;-77
2021/11/06 13:35:37;;;;;;;13.47;8.10;;;;;;;;;;5053672;28;20295;-77
2021/11/06 13:38:15;;;;;;;15.23;8.30;;;;;;;;;;5054699;28;20233;-77
2021/11/06 13:40:51;;;;;;;16.33;8.60;;;;;;;;;;5054277;28;20220;-77
2021/11/06 13:43:21;;;;;;;12.07;7.67;;;;;;;;;;5053763;28;20343;-77
2021/11/06 13:46:30;;;;;;;14.13;8.63;;;;;;;;;;5054852;28;20215;-78
2021/11/06 13:49:04;;;;;;;14.27;8.77;;;;;;;;;;5053903;28;20226;-77
2021/11/06 13:51:34;;;;;;;14.03;8.40;;;;;;;;;;5054049;28;20228;-77
2021/11/06 13:54:05;;;;;;;13.23;8.20;;;;;;;;;;5052762;28;20233;-78
2021/11/06 13:56:48;;;;;;;13.83;8.47;;;;;;;;;;5051197;28;20300;-77
2021/11/06 13:59:16;;;;;;;16.80;8.87;;;;;;;;;;5051875;28;20967;-77
2021/11/06 14:01:46;;;;;;;13.40;9.57;;;;;;;;;;5053124;28;20961;-77
2021/11/06 14:04:13;;;;;;;12.37;9.30;;;;;;;;;;5056970;28;20617;-77
2021/11/06 14:06:39;;;;;;;11.63;8.70;;;;;;;;;;5056551;28;20235;-78
2021/11/06 14:09:07;;;;;;;14.00;9.67;;;;;;;;;;5052661;28;20335;-78
2021/11/06 14:11:50;;;;;;;11.93;8.60;;;;;;;;;;5053144;28;20247;-77
2021/11/06 14:14:17;;;;;;;9.63;8.13;;;;;;;;;;5053669;28;20228;-78
2021/11/06 14:16:45;;;;;;;11.33;8.73;;;;;;;;;;5053289;28;20220;-77
2021/11/06 14:19:15;;;;;;;11.53;8.63;;;;;;;;;;5052118;28;20351;-78
2021/11/06 14:21:47;;;;;;;14.93;7.30;;;;;;;;;;5054384;28;20825;-78
2021/11/06 14:24:14;;;;;;;8.70;7.80;;;;;;;;;;5052149;28;20243;-77
2021/11/06 14:26:47;;;;;;;13.10;8.80;;;;;;;;;;5050644;28;20248;-77
2021/11/06 14:29:16;;;;;;;11.30;8.07;;;;;;;;;;5050691;28;20565;-77
2021/11/06 14:31:46;;;;;;;11.77;8.53;;;;;;;;;;5052391;28;20205;-77